Terminal Aerodrome Forecast
Issued by NWS Northern Indiana

Home | Current Version | Previous Version | Text Only | Print | Product List | Glossary On
Versions: 1 2 3 4 5 6 7 8 9 10 11 12 13
000
FTUS43 KIWX 232300
TAFFWA
TAF
KFWA 232320Z 2400/2424 04005KT P6SM SCT250
     FM240500 08004KT P6SM BKN120
     FM241500 13016G22KT P6SM SCT150=

USA.gov is the U.S. government's official web portal to all federal, state and local government web resources and services.